createdAt,value
2018-05-10T00:01:15.718Z,48.83
2018-05-10T00:03:50.387Z,45.70
2018-05-10T00:06:25.082Z,48.53
2018-05-10T00:08:59.680Z,46.40
2018-05-10T00:11:35.916Z,48.83
2018-05-10T00:14:10.886Z,47.43
2018-05-10T00:16:45.641Z,45.83
2018-05-10T00:19:20.256Z,47.90
2018-05-10T00:21:55.066Z,46.40
2018-05-10T00:24:30.358Z,47.50
2018-05-10T00:27:05.110Z,49.33
2018-05-10T00:29:40.495Z,48.63
2018-05-10T00:32:15.836Z,49.77
2018-05-10T00:34:50.467Z,51.20
2018-05-10T00:37:25.031Z,51.90
2018-05-10T00:39:59.698Z,49.73
2018-05-10T00:42:34.359Z,50.60
2018-05-10T00:45:09.042Z,52.50
2018-05-10T00:47:43.678Z,50.47
2018-05-10T00:50:18.389Z,46.90
2018-05-10T00:52:53.272Z,49.30
2018-05-10T00:55:28.042Z,47.23
2018-05-10T00:58:02.761Z,48.50
2018-05-10T01:00:37.275Z,47.10
2018-05-10T01:03:11.955Z,47.23
2018-05-10T01:05:46.867Z,44.70
2018-05-10T01:08:21.731Z,46.23
2018-05-10T01:10:56.405Z,45.93
2018-05-10T01:13:31.665Z,45.97
2018-05-10T01:16:06.280Z,42.67
2018-05-10T01:18:40.930Z,41.13
2018-05-10T01:21:15.545Z,40.40
2018-05-10T01:23:50.183Z,40.40
2018-05-10T01:26:24.757Z,41.50
2018-05-10T01:28:59.195Z,40.00
2018-05-10T01:31:34.013Z,38.90
2018-05-10T01:34:09.483Z,40.10
2018-05-10T01:36:44.064Z,40.40
2018-05-10T01:39:18.713Z,38.43
2018-05-10T01:41:53.107Z,36.90
2018-05-10T01:44:27.442Z,37.20
2018-05-10T01:47:02.438Z,36.80
2018-05-10T01:49:37.129Z,34.93
2018-05-10T01:52:11.738Z,34.50
2018-05-10T01:54:46.493Z,33.80
2018-05-10T01:57:21.161Z,33.00
2018-05-10T01:59:55.921Z,28.27
2018-05-10T02:02:30.554Z,27.70
2018-05-10T02:05:04.594Z,27.93
2018-05-10T02:07:40.073Z,25.90
2018-05-10T02:10:14.917Z,24.50
2018-05-10T02:12:49.665Z,25.40
2018-05-10T02:15:24.995Z,22.33
2018-05-10T02:17:59.733Z,22.57
2018-05-10T02:20:34.630Z,20.87
2018-05-10T02:23:09.209Z,19.50
2018-05-10T02:25:43.760Z,16.57
2018-05-10T02:28:18.331Z,15.73
2018-05-10T02:30:52.992Z,15.03
2018-05-10T02:33:27.593Z,14.87
2018-05-10T02:36:02.302Z,15.40
2018-05-10T02:38:37.055Z,15.53
2018-05-10T02:41:12.528Z,16.53
2018-05-10T02:43:47.108Z,17.47
2018-05-10T02:46:22.699Z,17.03
2018-05-10T02:48:57.485Z,17.90
2018-05-10T02:51:32.926Z,17.53
2018-05-10T02:54:07.530Z,18.50
2018-05-10T02:56:42.190Z,17.73
2018-05-10T02:59:16.906Z,20.20
2018-05-10T03:01:51.579Z,20.63
2018-05-10T03:04:26.058Z,21.30
2018-05-10T03:07:00.873Z,22.60
2018-05-10T03:09:35.750Z,27.60
2018-05-10T03:12:10.787Z,31.07
2018-05-10T03:14:45.895Z,32.80
2018-05-10T03:17:20.814Z,37.20
2018-05-10T03:19:55.762Z,39.17
2018-05-10T03:22:31.416Z,39.37
2018-05-10T03:25:07.091Z,41.60
2018-05-10T03:27:41.678Z,43.67
2018-05-10T03:30:16.279Z,42.27
2018-05-10T03:32:50.954Z,41.80
2018-05-10T03:35:25.785Z,42.37
2018-05-10T03:38:00.353Z,41.33
2018-05-10T03:40:35.363Z,42.87
2018-05-10T03:43:10.079Z,42.07
2018-05-10T03:45:44.749Z,40.37
2018-05-10T03:48:20.384Z,41.50
2018-05-10T03:50:55.854Z,41.10
2018-05-10T03:53:31.334Z,38.93
2018-05-10T03:56:05.902Z,39.47
2018-05-10T03:58:40.685Z,36.53
2018-05-10T04:01:15.364Z,36.70
2018-05-10T04:04:01.562Z,35.77
2018-05-10T04:06:41.919Z,37.93
2018-05-10T04:09:27.879Z,36.27
2018-05-10T04:12:02.690Z,35.13
2018-05-10T04:14:37.258Z,35.13
2018-05-10T04:17:12.047Z,36.20
2018-05-10T04:19:46.677Z,34.00
2018-05-10T04:22:21.233Z,34.60
2018-05-10T04:24:56.136Z,36.87
2018-05-10T04:27:31.185Z,34.00
2018-05-10T04:30:05.734Z,33.73
2018-05-10T04:32:40.668Z,36.10
2018-05-10T04:35:15.397Z,34.47
2018-05-10T04:37:50.145Z,33.80
2018-05-10T04:40:24.717Z,32.07
2018-05-10T04:42:59.305Z,29.27
2018-05-10T04:45:33.835Z,25.80
2018-05-10T04:48:08.596Z,25.50
2018-05-10T04:50:43.283Z,23.83
2018-05-10T04:53:17.860Z,22.50
2018-05-10T04:55:52.495Z,22.67
2018-05-10T04:58:27.843Z,21.77
2018-05-10T05:01:02.442Z,21.40
2018-05-10T05:03:37.366Z,20.83
2018-05-10T05:06:12.027Z,18.97
2018-05-10T05:08:46.875Z,19.80
2018-05-10T05:11:21.761Z,18.33
2018-05-10T05:13:58.019Z,18.67
2018-05-10T05:16:32.751Z,16.50
2018-05-10T05:19:07.518Z,16.83
2018-05-10T05:21:42.206Z,16.60
2018-05-10T05:24:16.895Z,15.70
2018-05-10T05:26:52.251Z,14.57
2018-05-10T05:29:26.939Z,14.97
2018-05-10T05:32:01.500Z,12.87
2018-05-10T05:34:36.506Z,12.00
2018-05-10T05:37:12.774Z,10.67
2018-05-10T05:39:47.516Z,9.63
2018-05-10T05:42:22.048Z,10.80
2018-05-10T05:44:56.647Z,10.50
2018-05-10T05:47:31.352Z,10.40
2018-05-10T05:50:05.881Z,10.33
2018-05-10T05:52:40.459Z,10.43
2018-05-10T05:55:16.154Z,11.53
2018-05-10T05:57:50.867Z,11.53
2018-05-10T06:00:25.603Z,14.80
2018-05-10T06:03:00.199Z,14.90
2018-05-10T06:05:34.971Z,15.43
2018-05-10T06:08:09.659Z,15.20
2018-05-10T06:10:44.350Z,14.60
2018-05-10T06:13:19.464Z,14.67
2018-05-10T06:15:54.057Z,14.53
2018-05-10T06:18:29.247Z,14.90
2018-05-10T06:21:03.953Z,15.57
2018-05-10T06:23:38.452Z,15.33
2018-05-10T06:26:13.095Z,15.50
2018-05-10T06:28:47.949Z,17.33
2018-05-10T06:31:22.821Z,18.77
2018-05-10T06:33:57.825Z,17.27
2018-05-10T06:36:32.784Z,19.13
2018-05-10T06:39:07.616Z,17.90
2018-05-10T06:41:42.134Z,17.53
2018-05-10T06:44:22.015Z,17.97
2018-05-10T06:46:56.895Z,18.73
2018-05-10T06:49:32.824Z,19.20
2018-05-10T06:52:07.537Z,18.30
2018-05-10T06:54:42.532Z,17.47
2018-05-10T06:57:17.385Z,16.20
2018-05-10T06:59:51.980Z,16.70
2018-05-10T07:02:26.637Z,15.60
2018-05-10T07:05:01.435Z,16.30
2018-05-10T07:07:36.284Z,17.30
2018-05-10T07:10:10.934Z,18.37
2018-05-10T07:12:45.511Z,18.20
2018-05-10T07:15:20.186Z,19.27
2018-05-10T07:17:54.736Z,17.57
2018-05-10T07:20:33.350Z,18.50
2018-05-10T07:23:08.157Z,17.30
2018-05-10T07:25:42.877Z,17.47
2018-05-10T07:28:18.387Z,17.10
2018-05-10T07:30:53.866Z,17.57
2018-05-10T07:33:28.691Z,16.77
2018-05-10T07:36:04.377Z,16.87
2018-05-10T07:38:39.064Z,15.50
2018-05-10T07:41:14.002Z,14.83
2018-05-10T07:43:48.935Z,12.83
2018-05-10T07:46:24.451Z,10.47
2018-05-10T07:48:59.162Z,11.53
2018-05-10T07:51:33.631Z,10.20
2018-05-10T07:54:08.306Z,9.10
2018-05-10T07:56:42.872Z,9.57
2018-05-10T07:59:17.511Z,9.73
2018-05-10T08:01:52.232Z,12.30
2018-05-10T08:04:26.934Z,14.00
2018-05-10T08:07:01.695Z,17.77
2018-05-10T08:09:36.487Z,17.20
2018-05-10T08:12:11.530Z,18.97
2018-05-10T08:14:46.314Z,19.70
2018-05-10T08:17:21.069Z,18.87
2018-05-10T08:19:56.045Z,18.60
2018-05-10T08:22:30.866Z,19.70
2018-05-10T08:25:06.270Z,20.10
2018-05-10T08:27:47.145Z,19.50
2018-05-10T08:30:21.883Z,12.40
2018-05-10T08:32:56.530Z,11.83
2018-05-10T08:35:31.920Z,11.40
2018-05-10T08:38:07.421Z,8.23
2018-05-10T08:40:42.128Z,8.00
2018-05-10T08:43:17.712Z,6.60
2018-05-10T08:45:53.297Z,6.77
2018-05-10T08:48:27.888Z,6.93
2018-05-10T08:51:02.828Z,6.70
2018-05-10T08:53:37.681Z,5.33
2018-05-10T08:56:13.000Z,5.07
2018-05-10T08:58:47.696Z,5.60
2018-05-10T09:01:22.298Z,6.00
2018-05-10T09:03:57.072Z,6.00
2018-05-10T09:06:31.807Z,5.73
2018-05-10T09:09:07.370Z,6.23
2018-05-10T09:11:42.257Z,5.67
2018-05-10T09:14:16.889Z,4.93
2018-05-10T09:16:51.731Z,5.00
2018-05-10T09:19:26.558Z,4.63
2018-05-10T09:22:01.300Z,3.33
2018-05-10T09:24:36.091Z,3.60
2018-05-10T09:27:11.607Z,4.20
2018-05-10T09:29:46.158Z,3.60
2018-05-10T09:32:20.773Z,4.33
2018-05-10T09:34:55.531Z,3.90
2018-05-10T09:37:30.173Z,3.70
2018-05-10T09:40:04.633Z,4.90
2018-05-10T09:42:40.174Z,3.90
2018-05-10T09:45:15.860Z,3.97
2018-05-10T09:47:50.562Z,3.27
2018-05-10T09:50:25.134Z,3.90
2018-05-10T09:52:59.796Z,4.03
2018-05-10T09:55:34.458Z,4.00
2018-05-10T09:58:09.230Z,3.90
2018-05-10T10:00:43.686Z,4.60
2018-05-10T10:03:18.395Z,4.50
2018-05-10T10:05:52.924Z,5.00
2018-05-10T10:08:27.553Z,4.90
2018-05-10T10:11:02.177Z,4.77
2018-05-10T10:13:37.049Z,4.93
2018-05-10T10:16:12.382Z,5.40
2018-05-10T10:18:46.943Z,6.00
2018-05-10T10:21:21.559Z,5.80
2018-05-10T10:23:56.417Z,5.90
2018-05-10T10:26:30.888Z,6.80
2018-05-10T10:29:06.357Z,6.80
2018-05-10T10:31:42.079Z,7.20
2018-05-10T10:34:16.922Z,7.30
2018-05-10T10:36:51.538Z,8.50
2018-05-10T10:39:26.253Z,7.40
2018-05-10T10:42:00.889Z,7.60
2018-05-10T10:44:35.531Z,10.20
2018-05-10T10:47:10.159Z,11.40
2018-05-10T10:49:45.471Z,11.13
2018-05-10T10:52:20.949Z,11.90
2018-05-10T10:54:55.610Z,13.07
2018-05-10T10:57:30.942Z,17.17
2018-05-10T11:00:05.824Z,16.63
2018-05-10T11:02:40.806Z,18.70
2018-05-10T11:05:15.532Z,19.60
2018-05-10T11:07:50.167Z,18.90
2018-05-10T11:10:24.937Z,21.07
2018-05-10T11:13:00.582Z,20.70
2018-05-10T11:15:35.208Z,22.23
2018-05-10T11:18:09.799Z,22.87
2018-05-10T11:20:45.242Z,25.47
2018-05-10T11:23:19.841Z,24.07
2018-05-10T11:25:54.517Z,23.83
2018-05-10T11:28:29.375Z,23.63
2018-05-10T11:31:04.471Z,24.20
2018-05-10T11:33:38.973Z,23.50
2018-05-10T11:36:13.713Z,24.40
2018-05-10T11:38:48.516Z,23.70
2018-05-10T11:41:23.288Z,23.43
2018-05-10T11:43:58.145Z,24.17
2018-05-10T11:46:32.958Z,21.90
2018-05-10T11:49:08.462Z,22.57
2018-05-10T11:51:44.267Z,23.70
2018-05-10T11:54:19.119Z,23.67
2018-05-10T11:56:54.817Z,24.47
2018-05-10T11:59:29.398Z,25.03
2018-05-10T12:02:04.131Z,23.00
2018-05-10T12:04:39.577Z,23.67
2018-05-10T12:07:14.267Z,23.47
2018-05-10T12:09:49.764Z,23.90
2018-05-10T12:12:25.608Z,23.73
2018-05-10T12:15:00.140Z,24.00
2018-05-10T12:17:34.796Z,25.23
2018-05-10T12:20:09.376Z,24.20
2018-05-10T12:22:44.155Z,23.50
2018-05-10T12:25:18.799Z,23.93
2018-05-10T12:27:53.581Z,24.60
2018-05-10T12:30:29.181Z,23.67
2018-05-10T12:33:04.083Z,25.27
2018-05-10T12:35:39.480Z,25.17
2018-05-10T12:38:14.186Z,25.10
2018-05-10T12:40:49.034Z,25.37
2018-05-10T12:43:23.851Z,25.10
2018-05-10T12:45:58.452Z,24.70
2018-05-10T12:48:33.181Z,24.77
2018-05-10T12:51:09.391Z,24.80
2018-05-10T12:53:44.015Z,25.70
2018-05-10T12:56:20.091Z,25.07
2018-05-10T12:58:54.850Z,24.43
2018-05-10T13:01:29.682Z,25.43
2018-05-10T13:04:04.367Z,25.70
2018-05-10T13:06:39.839Z,25.90
2018-05-10T13:09:14.653Z,25.93
2018-05-10T13:11:49.247Z,25.83
2018-05-10T13:14:23.887Z,27.70
2018-05-10T13:16:58.806Z,26.63
2018-05-10T13:19:33.799Z,28.20
2018-05-10T13:22:08.693Z,25.90
2018-05-10T13:24:43.444Z,27.80
2018-05-10T13:27:17.782Z,28.30
2018-05-10T13:29:53.397Z,26.13
2018-05-10T13:32:28.073Z,26.87
2018-05-10T13:35:02.785Z,26.53
2018-05-10T13:37:37.871Z,27.27
2018-05-10T13:40:12.718Z,27.70
2018-05-10T13:42:48.248Z,26.73
2018-05-10T13:45:23.036Z,27.10
2018-05-10T13:47:58.632Z,26.80
2018-05-10T13:50:33.435Z,26.30
2018-05-10T13:53:09.076Z,26.40
2018-05-10T13:55:44.746Z,26.67
2018-05-10T13:58:19.551Z,26.23
2018-05-10T14:00:54.304Z,25.23
2018-05-10T14:03:28.864Z,25.80
2018-05-10T14:06:03.519Z,24.80
2018-05-10T14:08:39.001Z,24.67
2018-05-10T14:11:13.819Z,22.90
2018-05-10T14:13:49.003Z,23.10
2018-05-10T14:16:23.632Z,21.50
2018-05-10T14:18:58.439Z,20.70
2018-05-10T14:21:33.273Z,19.87
2018-05-10T14:24:08.003Z,19.70
2018-05-10T14:26:42.887Z,19.60
2018-05-10T14:29:17.579Z,19.37
2018-05-10T14:31:52.298Z,17.90
2018-05-10T14:34:27.189Z,17.60
2018-05-10T14:37:02.670Z,17.83
2018-05-10T14:39:37.595Z,16.70
2018-05-10T14:42:12.080Z,16.53
2018-05-10T14:44:47.424Z,18.17
2018-05-10T14:47:22.048Z,17.37
2018-05-10T14:49:56.738Z,15.87
2018-05-10T14:52:31.428Z,16.07
2018-05-10T14:55:06.880Z,15.37
2018-05-10T14:57:41.596Z,14.20
2018-05-10T15:00:16.409Z,13.73
2018-05-10T15:02:51.076Z,14.60
2018-05-10T15:05:25.661Z,14.17
2018-05-10T15:08:00.443Z,10.23
2018-05-10T15:10:35.035Z,8.90
2018-05-10T15:13:09.742Z,9.53
2018-05-10T15:15:45.157Z,8.70
2018-05-10T15:18:20.472Z,8.47
2018-05-10T15:20:55.228Z,8.50
2018-05-10T15:23:29.857Z,8.13
2018-05-10T15:26:04.848Z,7.13
2018-05-10T15:28:40.025Z,8.10
2018-05-10T15:31:14.825Z,7.60
2018-05-10T15:33:49.643Z,6.40
2018-05-10T15:36:24.334Z,6.33
2018-05-10T15:38:59.111Z,5.53
2018-05-10T15:41:34.378Z,5.60
2018-05-10T15:44:09.789Z,6.70
2018-05-10T15:46:44.512Z,6.50
2018-05-10T15:49:20.136Z,6.33
2018-05-10T15:51:54.852Z,6.53
2018-05-10T15:54:29.766Z,5.83
2018-05-10T15:57:04.101Z,5.80
2018-05-10T15:59:38.903Z,5.67
2018-05-10T16:02:13.807Z,6.17
2018-05-10T16:04:48.781Z,6.50
2018-05-10T16:07:23.402Z,6.77
2018-05-10T16:09:58.996Z,6.67
2018-05-10T16:12:34.071Z,7.33
2018-05-10T16:15:09.755Z,6.27
2018-05-10T16:17:44.681Z,7.97
2018-05-10T16:20:19.376Z,6.60
2018-05-10T16:22:54.187Z,6.80
2018-05-10T16:25:29.156Z,6.43
2018-05-10T16:28:03.900Z,6.00
2018-05-10T16:30:39.443Z,7.57
2018-05-10T16:33:14.383Z,6.37
2018-05-10T16:35:49.090Z,7.00
2018-05-10T16:38:23.725Z,6.93
2018-05-10T16:40:58.133Z,6.47
2018-05-10T16:43:32.518Z,5.80
2018-05-10T16:46:08.063Z,6.53
2018-05-10T16:48:43.440Z,5.73
2018-05-10T16:51:18.050Z,5.37
2018-05-10T16:53:52.765Z,5.67
2018-05-10T16:56:27.637Z,6.03
2018-05-10T16:59:02.778Z,5.87
2018-05-10T17:01:37.232Z,5.43
2018-05-10T17:04:11.957Z,5.67
2018-05-10T17:06:46.395Z,5.10
2018-05-10T17:09:21.198Z,5.10
2018-05-10T17:11:55.751Z,5.60
2018-05-10T17:14:30.480Z,5.30
2018-05-10T17:17:05.113Z,5.53
2018-05-10T17:19:39.857Z,6.27
2018-05-10T17:22:14.374Z,5.63
2018-05-10T17:24:48.795Z,5.63
2018-05-10T17:27:24.085Z,5.77
2018-05-10T17:29:58.680Z,4.97
2018-05-10T17:32:33.264Z,4.90
2018-05-10T17:35:08.008Z,5.30
2018-05-10T17:37:43.313Z,5.33
2018-05-10T17:40:18.347Z,4.90
2018-05-10T17:42:53.703Z,4.70
2018-05-10T17:45:28.457Z,4.50
2018-05-10T17:48:05.013Z,5.50
2018-05-10T17:50:39.875Z,4.43
2018-05-10T17:53:14.535Z,4.53
2018-05-10T17:55:49.323Z,4.50
2018-05-10T17:58:23.859Z,4.50
2018-05-10T18:00:52.962Z,3.90
2018-05-10T18:03:22.899Z,4.50
2018-05-10T18:05:51.953Z,4.50
2018-05-10T18:08:21.150Z,4.57
2018-05-10T18:10:56.404Z,4.57
2018-05-10T18:13:30.972Z,3.97
2018-05-10T18:16:06.350Z,4.47
2018-05-10T18:18:41.997Z,3.93
2018-05-10T18:21:18.132Z,4.40
2018-05-10T18:23:52.708Z,4.30
2018-05-10T18:26:27.516Z,3.47
2018-05-10T18:29:03.154Z,4.30
2018-05-10T18:31:38.852Z,3.77
2018-05-10T18:34:13.542Z,3.73
2018-05-10T18:36:48.863Z,4.60
2018-05-10T18:39:23.647Z,3.57
2018-05-10T18:41:59.122Z,4.17
2018-05-10T18:44:33.842Z,4.37
2018-05-10T18:47:03.176Z,4.20
2018-05-10T18:49:32.448Z,4.60
2018-05-10T18:52:01.686Z,4.00
2018-05-10T18:54:32.073Z,4.10
2018-05-10T18:57:01.065Z,3.77
2018-05-10T18:59:32.051Z,4.40
2018-05-10T19:02:01.192Z,3.77
2018-05-10T19:04:30.542Z,3.80
2018-05-10T19:07:05.259Z,4.00
2018-05-10T19:09:39.953Z,3.80
2018-05-10T19:12:14.714Z,3.70
2018-05-10T19:14:49.533Z,4.07
2018-05-10T19:17:24.159Z,3.30
2018-05-10T19:19:59.526Z,3.83
2018-05-10T19:22:35.101Z,3.40
2018-05-10T19:25:09.676Z,3.60
2018-05-10T19:27:44.319Z,3.60
2018-05-10T19:30:20.260Z,3.37
2018-05-10T19:32:54.874Z,3.57
2018-05-10T19:35:33.715Z,3.43
2018-05-10T19:38:08.393Z,3.70
2018-05-10T19:40:38.211Z,3.87
2018-05-10T19:43:07.314Z,3.80
2018-05-10T19:45:36.610Z,4.07
2018-05-10T19:48:05.762Z,3.90
2018-05-10T19:50:34.919Z,3.80
2018-05-10T19:53:04.142Z,4.23
2018-05-10T19:55:33.431Z,4.10
2018-05-10T19:58:02.721Z,4.50
2018-05-10T20:00:32.365Z,4.00
2018-05-10T20:03:02.326Z,4.47
2018-05-10T20:05:37.179Z,4.43
2018-05-10T20:08:12.786Z,4.00
2018-05-10T20:10:47.652Z,5.10
2018-05-10T20:13:22.272Z,4.60
2018-05-10T20:15:56.938Z,4.43
2018-05-10T20:18:31.493Z,4.40
2018-05-10T20:21:06.266Z,4.20
2018-05-10T20:23:41.196Z,5.03
2018-05-10T20:26:16.690Z,4.30
2018-05-10T20:28:51.355Z,4.50
2018-05-10T20:31:26.836Z,5.20
2018-05-10T20:34:02.385Z,4.63
2018-05-10T20:36:37.802Z,5.20
2018-05-10T20:39:14.879Z,5.13
2018-05-10T20:41:50.222Z,4.90
2018-05-10T20:44:24.831Z,5.50
2018-05-10T20:46:59.593Z,5.53
2018-05-10T20:49:34.380Z,5.60
2018-05-10T20:52:10.036Z,5.60
2018-05-10T20:54:44.850Z,5.17
2018-05-10T20:57:19.797Z,6.07
2018-05-10T20:59:55.155Z,5.53
2018-05-10T21:02:30.288Z,6.17
2018-05-10T21:05:05.006Z,6.10
2018-05-10T21:07:40.666Z,6.10
2018-05-10T21:10:15.392Z,7.07
2018-05-10T21:12:50.991Z,6.67
2018-05-10T21:15:25.584Z,6.80
2018-05-10T21:17:59.936Z,6.80
2018-05-10T21:20:34.436Z,7.00
2018-05-10T21:23:09.217Z,6.80
2018-05-10T21:25:48.996Z,7.10
2018-05-10T21:28:23.978Z,7.30
2018-05-10T21:30:59.503Z,7.00
2018-05-10T21:33:34.250Z,7.00
2018-05-10T21:36:08.925Z,7.50
2018-05-10T21:38:43.732Z,7.77
2018-05-10T21:41:18.512Z,6.80
2018-05-10T21:43:53.257Z,7.50
2018-05-10T21:46:27.710Z,7.90
2018-05-10T21:49:01.635Z,8.40
2018-05-10T21:51:36.273Z,8.27
2018-05-10T21:54:11.242Z,8.30
2018-05-10T21:56:45.977Z,8.20
2018-05-10T21:59:20.624Z,8.07
2018-05-10T22:01:55.287Z,8.90
2018-05-10T22:04:30.796Z,8.40
2018-05-10T22:07:04.959Z,8.73
2018-05-10T22:09:40.429Z,9.03
2018-05-10T22:12:15.873Z,9.03
2018-05-10T22:14:50.696Z,9.53
2018-05-10T22:17:25.327Z,8.57
2018-05-10T22:20:00.047Z,9.60
2018-05-10T22:22:34.881Z,9.77
2018-05-10T22:25:09.841Z,10.20
2018-05-10T22:27:47.502Z,9.27
2018-05-10T22:30:22.265Z,9.30
2018-05-10T22:32:57.055Z,10.50
2018-05-10T22:35:32.416Z,9.37
2018-05-10T22:38:06.991Z,9.97
2018-05-10T22:40:41.382Z,9.73
2018-05-10T22:43:16.820Z,10.87
2018-05-10T22:45:51.215Z,10.53
2018-05-10T22:48:25.827Z,10.77
2018-05-10T22:51:00.494Z,10.00
2018-05-10T22:53:35.906Z,10.83
2018-05-10T22:56:10.526Z,10.57
2018-05-10T22:58:45.322Z,11.00
2018-05-10T23:01:19.817Z,11.60
2018-05-10T23:03:54.573Z,10.00
2018-05-10T23:06:30.782Z,10.40
2018-05-10T23:09:05.778Z,10.10
2018-05-10T23:11:41.947Z,9.97
2018-05-10T23:14:16.718Z,10.03
2018-05-10T23:16:52.159Z,9.90
2018-05-10T23:19:27.602Z,10.10
2018-05-10T23:22:02.330Z,10.77
2018-05-10T23:24:38.505Z,11.07
2018-05-10T23:27:13.374Z,11.10
2018-05-10T23:29:43.239Z,10.73
2018-05-10T23:32:17.923Z,10.53
2018-05-10T23:34:52.658Z,10.57
2018-05-10T23:37:28.245Z,10.63
2018-05-10T23:40:02.927Z,10.03
2018-05-10T23:42:38.376Z,10.50
2018-05-10T23:45:13.099Z,10.80
2018-05-10T23:47:48.070Z,11.50
2018-05-10T23:50:22.671Z,11.00
2018-05-10T23:52:57.982Z,9.93
2018-05-10T23:55:32.765Z,11.07
2018-05-10T23:58:07.349Z,10.90
